Flight Track Log - Related Links

Times and Time Zones

All times are in EDT time to prevent confusion due to time zone crossing. See the EJA292 flight status page for this flight to view local times or setup timezone preferences in your user account.

Time Position Orientation Groundspeed Altitude Reporting Facility
EDT Latitude Longitude Course Direction KTS MPH feet Rate Location/Type
Wed 12:24:11 PM 40.8056 -73.9019 328° Northwest 205 236 1,700  Level New York Center
Wed 12:25:11 PM 40.8544 -73.9425 328° Northwest 193 222 4,900 3,000 Climbing New York Center
Wed 12:26:11 PM 40.8633 -73.9978 282° West 202 232 7,700 2,400 Climbing New York Center
Wed 12:27:11 PM 40.8403 -74.0817 250° West 232 267 9,700 1,900 Climbing New York Center
Wed 12:28:11 PM 40.8169 -74.1683 250° West 279 321 11,500 1,200 Climbing New York Center
Wed 12:29:11 PM 40.7844 -74.2819 249° West 353 406 12,100 750 Climbing New York Center
Wed 12:30:11 PM 40.7519 -74.3925 249° West 386 444 13,000 1,200 Climbing New York Center
Wed 12:31:11 PM 40.7100 -74.5353 249° West 392 451 14,500 1,500 Climbing New York Center
Wed 12:32:11 PM 40.6667 -74.6478 243° Southwest 385 443 16,000 1,600 Climbing New York Center
Wed 12:33:11 PM 40.5758 -74.7492 220° Southwest 386 444 17,700 1,500 Climbing New York Center
Wed 12:34:11 PM 40.5064 -74.8297 221° Southwest 386 444 19,000 1,400 Climbing New York Center
Wed 12:35:11 PM 40.4417 -74.9542 236° Southwest 386 444 20,500 1,500 Climbing New York Center
Wed 12:36:11 PM 40.3794 -75.0622 233° Southwest 381 438 22,000 1,500 Climbing New York Center
Wed 12:37:11 PM 40.3150 -75.1697 232° Southwest 381 438 23,500 1,500 Climbing New York Center
Wed 12:38:11 PM 40.2503 -75.2800 232° Southwest 381 438 25,000 1,450 Climbing New York Center
Wed 12:39:11 PM 40.1878 -75.3900 233° Southwest 381 438 26,400 1,400 Climbing New York Center
Wed 12:40:11 PM 40.1189 -75.4994 231° Southwest 381 438 27,800 1,150 Climbing New York Center
Wed 12:41:11 PM 40.0536 -75.6142 233° Southwest 386 444 28,700 950 Climbing New York Center
Wed 12:42:11 PM 39.9842 -75.7286 232° Southwest 397 457 29,700 1,000 Climbing New York Center
Wed 12:43:11 PM 39.9600 -75.8569 256° West 377 434 30,700 1,000 Climbing New York Center
Wed 12:44:11 PM 39.9831 -75.9994 282° West 369 425 31,700 1,000 Climbing New York Center
Wed 12:45:11 PM 39.9853 -76.1353 271° West 374 430 32,700 990 Climbing New York Center
Wed 12:47:25 PM 39.8483 -76.4103 237° Southwest 402 463 34,900 938 Climbing Washington Center
Wed 12:48:23 PM 39.8019 -76.5097 239° Southwest 407 468 35,700 958 Climbing Washington Center
Wed 12:49:24 PM 39.7300 -76.6464 236° Southwest 412 474 36,800 1,033 Climbing Washington Center
Wed 12:50:25 PM 39.6725 -76.7722 239° Southwest 412 474 37,800 1,008 Climbing Washington Center
Wed 12:51:23 PM 39.6128 -76.8953 238° Southwest 412 474 38,800 1,008 Climbing Washington Center
Wed 12:52:24 PM 39.5553 -77.0208 239° Southwest 412 474 39,800 595 Climbing Washington Center
Wed 12:53:24 PM 39.4953 -77.1458 238° Southwest 412 474 40,000 99 Climbing Washington Center
Wed 12:54:25 PM 39.4331 -77.2789 239° Southwest 417 480 40,000  Level Washington Center
Wed 12:55:23 PM 39.3664 -77.4144 238° Southwest 431 496 40,000  Level Washington Center
Wed 12:56:24 PM 39.3019 -77.5494 238° Southwest 442 509 40,000  Level Washington Center
Wed 12:57:25 PM 39.2350 -77.6869 238° Southwest 449 517 40,000  Level Washington Center
Wed 12:58:25 PM 39.1678 -77.8269 238° Southwest 455 524 40,000  Level Washington Center
Wed 12:59:25 PM 39.1006 -77.9667 238° Southwest 460 529 40,000  Level Washington Center
Wed 01:00:23 PM 39.0331 -78.1008 237° Southwest 460 529 40,000  Level Washington Center
Wed 01:01:24 PM 38.9569 -78.2531 237° Southwest 460 529 40,000  Level Washington Center
Wed 01:02:25 PM 38.8892 -78.3894 237° Southwest 460 529 40,000  Level Washington Center
Wed 01:03:25 PM 38.8214 -78.5253 237° Southwest 460 529 40,000  Level Washington Center
Wed 01:04:23 PM 38.7533 -78.6611 237° Southwest 460 529 40,000  Level Washington Center
Wed 01:05:24 PM 38.6853 -78.7964 237° Southwest 460 529 40,000  Level Washington Center
Wed 01:06:25 PM 38.6189 -78.9317 238° Southwest 460 529 40,000  Level Washington Center
Wed 01:07:23 PM 38.5483 -79.0642 236° Southwest 460 529 40,000  Level Washington Center
Wed 01:08:24 PM 38.4861 -79.2017 240° Southwest 455 524 40,000  Level Washington Center
Wed 01:09:24 PM 38.4239 -79.3233 237° Southwest 455 524 40,000  Level Washington Center
Wed 01:10:23 PM 38.3528 -79.4600 236° Southwest 465 535 40,000  Level Washington Center
Wed 01:11:23 PM 38.2839 -79.5939 237° Southwest 465 535 40,000  Level Washington Center
Wed 01:12:24 PM 38.2058 -79.7406 236° Southwest 465 535 40,000  Level Washington Center
Wed 01:13:25 PM 38.1364 -79.8764 237° Southwest 465 535 40,000  Level Washington Center
Wed 01:14:25 PM 38.0669 -80.0097 237° Southwest 465 535 40,000  Level Washington Center
Wed 01:15:25 PM 37.9972 -80.1400 236° Southwest 465 535 40,000  Level Washington Center
Wed 01:16:23 PM 37.9364 -80.2600 237° Southwest 465 535 40,000  Level Washington Center
Wed 01:18:24 PM 37.7869 -80.5314 235° Southwest 448 516 40,000  Level Indianapolis Center
Wed 01:19:26 PM 37.7197 -80.6578 236° Southwest 447 514 40,000  Level Indianapolis Center
Wed 01:20:28 PM 37.6522 -80.7842 236° Southwest 447 514 40,000  Level Indianapolis Center
Wed 01:21:30 PM 37.5708 -80.9336 236° Southwest 445 512 40,000  Level Indianapolis Center
Wed 01:22:31 PM 37.5036 -81.0592 236° Southwest 446 513 40,000  Level Indianapolis Center
Wed 01:23:33 PM 37.4369 -81.1844 236° Southwest 445 512 40,000  Level Indianapolis Center
Wed 01:24:35 PM 37.3683 -81.3100 236° Southwest 446 513 40,000  Level Indianapolis Center
Wed 01:25:37 PM 37.2869 -81.4558 235° Southwest 448 516 40,000  Level Indianapolis Center
Wed 01:26:39 PM 37.2167 -81.5847 236° Southwest 446 513 40,000  Level Indianapolis Center
Wed 01:27:41 PM 37.1450 -81.7139 235° Southwest 450 518 40,000  Level Indianapolis Center
Wed 01:28:43 PM 37.0744 -81.8431 236° Southwest 449 517 40,000  Level Indianapolis Center
Wed 01:29:45 PM 36.9914 -81.9933 235° Southwest 449 517 40,000  Level Indianapolis Center
Wed 01:31:43 PM 36.8583 -82.2306 235° Southwest 455 524 40,000  Level Atlanta Center
Wed 01:32:43 PM 36.7869 -82.3567 235° Southwest 455 524 40,000  Level Atlanta Center
Wed 01:33:43 PM 36.7178 -82.4797 235° Southwest 455 524 40,000  Level Atlanta Center
Wed 01:34:43 PM 36.6442 -82.6028 233° Southwest 455 524 40,000  Level Atlanta Center
Wed 01:35:56 PM 36.5619 -82.7553 236° Southwest 444 511 40,000  Level Indianapolis Center
Wed 01:36:43 PM 36.4950 -82.8714 234° Southwest 455 524 40,000  Level Atlanta Center
Wed 01:37:43 PM 36.4250 -82.9964 235° Southwest 455 524 40,000  Level Atlanta Center
Wed 01:38:43 PM 36.3950 -83.1489 256° West 450 518 40,000  Level Atlanta Center
Wed 01:39:43 PM 36.3625 -83.2989 255° West 455 524 40,000  Level Atlanta Center
Wed 01:40:43 PM 36.3300 -83.4511 255° West 455 524 40,000  Level Atlanta Center
Wed 01:41:43 PM 36.2994 -83.5981 256° West 449 517 40,000  Level Atlanta Center
Wed 01:42:43 PM 36.2664 -83.7478 255° West 449 517 40,000  Level Atlanta Center
Wed 01:43:43 PM 36.2375 -83.8919 256° West 447 514 40,000  Level Atlanta Center
Wed 01:44:43 PM 36.2064 -84.0386 255° West 447 514 40,000  Level Atlanta Center
Wed 01:45:43 PM 36.1750 -84.1853 255° West 447 514 40,000  Level Atlanta Center
Wed 01:46:43 PM 36.1414 -84.3319 254° West 447 514 40,000  Level Atlanta Center
Wed 01:47:43 PM 36.1097 -84.4756 255° West 447 514 40,000  Level Atlanta Center
Wed 01:48:43 PM 36.0778 -84.6194 255° West 442 509 40,000  Level Atlanta Center
Wed 01:49:43 PM 36.0458 -84.7681 255° West 442 509 40,000  Level Atlanta Center
Wed 01:50:43 PM 36.0219 -84.9039 258° West 442 509 40,000  Level Atlanta Center
Wed 01:53:12 PM 35.9256 -85.2842 253° West 444 511 40,000  Level Memphis Center
Wed 01:54:12 PM 35.8897 -85.4300 253° West 444 511 40,000  Level Memphis Center
Wed 01:55:12 PM 35.8556 -85.5728 254° West 444 511 40,000  Level Memphis Center
Wed 01:56:13 PM 35.8217 -85.7231 254° West 444 511 40,000  Level Memphis Center
Wed 01:57:12 PM 35.7853 -85.8661 253° West 444 511 40,000  Level Memphis Center
Wed 01:58:12 PM 35.7511 -86.0161 254° West 449 517 40,000  Level Memphis Center
Wed 01:59:12 PM 35.7200 -86.1483 254° West 443 510 40,000  Level Memphis Center
Wed 02:00:12 PM 35.6833 -86.2933 253° West 443 510 40,000  Level Memphis Center
Wed 02:01:12 PM 35.6483 -86.4356 253° West 443 510 40,000  Level Memphis Center
Wed 02:02:12 PM 35.6153 -86.5853 255° West 448 516 40,000  Level Memphis Center
Wed 02:03:12 PM 35.5722 -86.7453 252° West 448 516 40,000  Level Memphis Center
Wed 02:04:12 PM 35.5408 -86.8897 255° West 443 510 40,000  Level Memphis Center
Wed 02:05:12 PM 35.5031 -87.0392 253° West 443 510 40,000  Level Memphis Center
Wed 02:06:12 PM 35.4653 -87.1833 252° West 443 510 40,000  Level Memphis Center
Wed 02:07:12 PM 35.4314 -87.3272 254° West 448 516 40,000  Level Memphis Center
Wed 02:08:12 PM 35.3950 -87.4689 253° West 443 510 40,000  Level Memphis Center
Wed 02:09:12 PM 35.3628 -87.6072 254° West 438 504 40,000  Level Memphis Center
Wed 02:10:12 PM 35.3264 -87.7561 253° West 443 510 40,000  Level Memphis Center
Wed 02:11:12 PM 35.2894 -87.8972 252° West 443 510 40,000  Level Memphis Center
Wed 02:12:12 PM 35.2547 -88.0406 254° West 443 510 40,000  Level Memphis Center
Wed 02:13:12 PM 35.2156 -88.1814 251° West 443 510 40,000  Level Memphis Center
Wed 02:14:13 PM 35.1806 -88.3272 254° West 443 510 40,000  Level Memphis Center
Wed 02:15:12 PM 35.1411 -88.4731 252° West 443 510 40,000  Level Memphis Center
Wed 02:16:12 PM 35.1075 -88.5956 251° West 437 503 40,000  Level Memphis Center
Wed 02:17:12 PM 35.0678 -88.7383 251° West 444 511 40,000  Level Memphis Center
Wed 02:18:12 PM 35.0278 -88.8836 251° West 444 511 40,000  Level Memphis Center
Wed 02:19:12 PM 34.9897 -89.0289 252° West 444 511 40,000  Level Memphis Center
Wed 02:20:12 PM 34.9517 -89.1714 252° West 444 511 40,000  Level Memphis Center
Wed 02:21:12 PM 34.9133 -89.3164 252° West 444 511 40,000  Level Memphis Center
Wed 02:22:12 PM 34.8706 -89.4711 251° West 444 511 40,000  Level Memphis Center
Wed 02:23:12 PM 34.8381 -89.5803 250° West 438 504 40,000  Level Memphis Center
Wed 02:24:12 PM 34.7869 -89.7603 251° West 455 524 40,000  Level Memphis Center
Wed 02:25:12 PM 34.7500 -89.9072 253° West 455 524 40,000  Level Memphis Center
Wed 02:26:13 PM 34.7147 -90.0439 253° West 474 545 40,000 100 Level Memphis Center
Wed 02:27:12 PM 34.6756 -90.1853 251° West 452 520 40,200 655 Climbing Memphis Center
Wed 02:28:12 PM 34.6358 -90.3294 252° West 447 514 41,300 1,050 Climbing Memphis Center
Wed 02:29:12 PM 34.5983 -90.4656 252° West 436 502 42,300 850 Climbing Memphis Center
Wed 02:30:12 PM 34.5564 -90.6144 251° West 436 502 43,000 350 Climbing Memphis Center
Wed 02:31:12 PM 34.5164 -90.7503 250° West 430 495 43,000  Level Memphis Center
Wed 02:32:12 PM 34.4764 -90.8911 251° West 430 495 43,000  Level Memphis Center
Wed 02:33:12 PM 34.4381 -91.0319 252° West 442 509 43,000  Level Memphis Center
Wed 02:34:12 PM 34.3956 -91.1728 250° West 447 514 43,000  Level Memphis Center
Wed 02:35:12 PM 34.3547 -91.3106 250° West 447 514 43,000  Level Memphis Center
Wed 02:36:12 PM 34.3392 -91.4539 263° West 434 499 43,000  Level Memphis Center
Wed 02:37:12 PM 34.3336 -91.6047 267° West 440 506 43,000  Level Memphis Center
Wed 02:38:12 PM 34.3281 -91.7353 267° West 440 506 43,000  Level Memphis Center
Wed 02:39:12 PM 34.3094 -91.8808 261° West 440 506 43,000  Level Memphis Center
Wed 02:40:12 PM 34.2639 -92.0183 248° West 440 506 43,000  Level Memphis Center
Wed 02:41:12 PM 34.2161 -92.1556 247° West 445 512 43,000  Level Memphis Center
Wed 02:42:12 PM 34.1661 -92.2900 246° West 450 518 43,000  Level Memphis Center
Wed 02:43:12 PM 34.1158 -92.4344 247° West 450 518 43,000  Level Memphis Center
Wed 02:44:12 PM 34.0656 -92.5711 246° West 455 524 43,000  Level Memphis Center
Wed 02:46:42 PM 33.9425 -92.9172 247° West 446 513 43,000  Level Fort Worth Center
Wed 02:47:42 PM 33.8894 -93.0650 247° West 457 526 43,000  Level Fort Worth Center
Wed 02:48:42 PM 33.8375 -93.1950 244° Southwest 451 519 43,000  Level Fort Worth Center
Wed 02:49:42 PM 33.7878 -93.3325 247° West 451 519 43,000  Level Fort Worth Center
Wed 02:50:42 PM 33.7381 -93.4722 247° West 451 519 43,000  Level Fort Worth Center
Wed 02:51:42 PM 33.6858 -93.6092 245° Southwest 451 519 43,000  Level Fort Worth Center
Wed 02:52:42 PM 33.6336 -93.7486 246° West 451 519 43,000  Level Fort Worth Center
Wed 02:53:42 PM 33.5939 -93.8850 251° West 446 513 43,000  Level Fort Worth Center
Wed 02:54:41 PM 33.5750 -94.0328 261° West 441 507 43,000  Level Fort Worth Center
Wed 02:55:42 PM 33.5578 -94.1806 262° West 446 513 43,000  Level Fort Worth Center
Wed 02:56:42 PM 33.5408 -94.3331 262° West 462 532 43,000 -650 Level Fort Worth Center
Wed 02:57:42 PM 33.5047 -94.4839 254° West 450 518 41,700 -1,750 Descending Fort Worth Center
Wed 02:58:42 PM 33.5122 -94.6256 274° West 426 490 39,500 -2,370 Descending Fort Worth Center
Wed 02:59:41 PM 33.5403 -94.7694 283° West 438 504 37,000 -2,550 Descending Fort Worth Center
Wed 03:00:42 PM 33.5414 -94.9214 271° West 444 511 34,400 -2,650 Descending Fort Worth Center
Wed 03:01:41 PM 33.5128 -95.0692 257° West 449 517 31,700 -2,723 Descending Fort Worth Center
Wed 03:02:41 PM 33.4867 -95.2267 259° West 467 537 29,000 -2,700 Descending Fort Worth Center
Wed 03:03:41 PM 33.4536 -95.3819 256° West 473 544 26,300 -2,678 Descending Fort Worth Center
Wed 03:04:42 PM 33.4267 -95.5317 258° West 473 544 23,600 -2,678 Descending Fort Worth Center
Wed 03:05:42 PM 33.3956 -95.6817 256° West 467 537 20,900 -2,622 Descending Fort Worth Center
Wed 03:06:41 PM 33.3700 -95.8117 257° West 462 532 18,400 -2,700 Descending Fort Worth Center
Wed 03:07:42 PM 33.3386 -95.9664 256° West 447 514 15,500 -2,678 Descending Fort Worth Center
Wed 03:08:42 PM 33.3128 -96.0911 256° West 432 497 13,000 -2,521 Descending Fort Worth Center
Wed 03:09:41 PM 33.2869 -96.2181 256° West 381 438 10,500 -1,850 Descending Fort Worth Center
Wed 03:10:42 PM 33.2711 -96.3003 257° West 316 364 9,300 -1,692 Descending Fort Worth Center
Wed 03:11:38 PM 33.2333 -96.3833 241° Southwest 269 310 7,200 -2,172 Descending Dallas / Fort Worth TRACON
Wed 03:12:38 PM 33.1833 -96.4500 228° Southwest 269 310 5,100 -1,048 Descending Dallas / Fort Worth TRACON
Wed 03:13:44 PM 33.1500 -96.5333 244° Southwest 262 302 5,000 -48 Descending Dallas / Fort Worth TRACON
Wed 03:14:42 PM 33.1064 -96.6050 234° Southwest 264 304 5,000 -305 Level Fort Worth Center
Wed 03:15:42 PM 33.0672 -96.6797 238° Southwest 264 304 4,400 -500 Descending Fort Worth Center
Wed 03:16:42 PM 33.0342 -96.7444 239° Southwest 252 290 4,000 -200 Descending Fort Worth Center
Wed 03:17:42 PM 33.0031 -96.8042 238° Southwest 223 257 4,000 -300 Level Fort Worth Center
Wed 03:18:42 PM 32.9761 -96.8586 239° Southwest 205 236 3,400 -522 Descending Fort Worth Center
Wed 03:19:37 PM 32.9500 -96.9000 233° Southwest 176 203 3,000 -466 Descending Dallas / Fort Worth TRACON
Wed 03:20:38 PM 32.9167 -96.9167 203° Southwest 156 180 2,500 -793 Descending Dallas / Fort Worth TRACON
Wed 03:21:38 PM 32.8833 -96.8833 140° Southeast 125 144 1,400 -1,100 Descending Dallas / Fort Worth TRACON
Wed 03:24:00 PM 32.8471 -96.8518 228° Southwest  Level Estimated
Wed 03:31:00 PM 32.8471 -96.8518 228° Southwest  Level Estimated

Login

Don't have an account? Register now (free) for customized features, flight alerts, and more!